Time;durP1;ratioP1;P1;durP2;ratioP2;P2;SDS_P1;SDS_P2;PMS_P1;PMS_P2;Temp;Humidity;BMP_temperature;BMP_pressure;BME280_temperature;BME280_humidity;BME280_pressure;Samples;Min_cycle;Max_cycle;Signal;HPM_P1;HPM_P2
2021/04/19 00:00:12;;;;;;;17.63;12.10;;;10.20;99.90;;;;;;5041981;28;20481;-87
2021/04/19 00:02:38;;;;;;;15.57;11.07;;;10.10;99.90;;;;;;5066901;28;20520;-88
2021/04/19 00:05:07;;;;;;;15.20;11.00;;;10.10;99.90;;;;;;5046214;28;20465;-88
2021/04/19 00:07:34;;;;;;;16.80;12.00;;;10.00;99.90;;;;;;5054772;28;20454;-86
2021/04/19 00:10:01;;;;;;;17.20;12.30;;;10.10;99.90;;;;;;5055077;28;20428;-83
2021/04/19 00:12:27;;;;;;;17.63;11.20;;;10.00;99.90;;;;;;5049778;28;20490;-84
2021/04/19 00:14:54;;;;;;;14.83;10.77;;;9.90;99.90;;;;;;5042093;28;20500;-87
2021/04/19 00:17:20;;;;;;;16.53;10.87;;;9.90;99.90;;;;;;5038446;28;20543;-85
2021/04/19 00:19:46;;;;;;;15.17;11.30;;;9.80;99.90;;;;;;5038743;28;20489;-83
2021/04/19 00:22:13;;;;;;;14.10;10.80;;;9.80;99.90;;;;;;5038261;28;20477;-87
2021/04/19 00:24:40;;;;;;;17.70;10.83;;;9.80;99.90;;;;;;5037856;28;20549;-86
2021/04/19 00:27:07;;;;;;;14.93;10.07;;;9.70;99.90;;;;;;5038739;28;20508;-87
2021/04/19 00:29:34;;;;;;;15.93;12.10;;;9.70;99.90;;;;;;5031236;28;21031;-88
2021/04/19 00:32:00;;;;;;;18.10;10.87;;;9.70;99.90;;;;;;5038871;28;20478;-87
2021/04/19 00:34:27;;;;;;;14.17;10.63;;;9.70;99.90;;;;;;5038774;28;20536;-87
2021/04/19 00:36:53;;;;;;;14.20;10.77;;;9.30;99.90;;;;;;5037633;28;20842;-86
2021/04/19 00:39:20;;;;;;;16.90;11.90;;;9.80;99.90;;;;;;5038288;28;20529;-86
2021/04/19 00:41:47;;;;;;;14.73;10.17;;;9.70;99.90;;;;;;5038794;28;20445;-87
2021/04/19 00:44:14;;;;;;;17.40;11.00;;;9.70;99.90;;;;;;5036587;28;20545;-87
2021/04/19 00:46:40;;;;;;;15.10;10.67;;;9.70;99.90;;;;;;5026903;28;21063;-87
2021/04/19 00:49:07;;;;;;;16.20;10.80;;;9.70;99.90;;;;;;5038132;28;20466;-86
2021/04/19 00:51:33;;;;;;;16.50;10.90;;;9.70;99.90;;;;;;5037874;28;20444;-88
2021/04/19 00:54:00;;;;;;;14.30;11.00;;;9.60;99.90;;;;;;5037417;28;20486;-86
2021/04/19 00:56:27;;;;;;;13.70;11.53;;;9.60;99.90;;;;;;5036351;28;20466;-85
2021/04/19 00:58:54;;;;;;;17.37;11.53;;;9.60;99.90;;;;;;5036359;28;20468;-87
2021/04/19 01:01:20;;;;;;;15.00;10.90;;;9.30;99.90;;;;;;5036881;28;20819;-86
2021/04/19 01:03:47;;;;;;;20.30;11.53;;;9.50;99.90;;;;;;5035698;28;20835;-88
2021/04/19 01:06:13;;;;;;;16.03;11.53;;;9.20;99.90;;;;;;5037864;28;20456;-87
2021/04/19 01:08:40;;;;;;;16.47;12.10;;;9.50;99.90;;;;;;5050395;28;20475;-84
2021/04/19 01:11:06;;;;;;;16.17;10.97;;;9.50;99.90;;;;;;5049637;28;20421;-85
2021/04/19 01:13:33;;;;;;;17.60;12.23;;;9.30;99.90;;;;;;5027840;28;20506;-88
2021/04/19 01:16:00;;;;;;;17.20;12.30;;;9.40;99.90;;;;;;5018219;28;20997;-88
2021/04/19 01:18:27;;;;;;;14.70;11.23;;;9.40;99.90;;;;;;5018591;28;20605;-85
2021/04/19 01:20:54;;;;;;;17.63;11.80;;;9.40;99.90;;;;;;5017521;28;20482;-86
2021/04/19 01:23:21;;;;;;;17.03;11.60;;;9.20;99.90;;;;;;5017585;28;20514;-87
2021/04/19 01:25:48;;;;;;;16.93;12.40;;;9.40;99.90;;;;;;5018413;28;20487;-86
2021/04/19 01:28:15;;;;;;;18.23;11.70;;;8.90;99.90;;;;;;5032367;28;20453;-86
2021/04/19 01:30:44;;;;;;;17.50;12.40;;;9.20;99.90;;;;;;5049055;28;20469;-85
2021/04/19 01:33:10;;;;;;;16.53;12.03;;;9.20;99.90;;;;;;5057634;28;20566;-85
2021/04/19 01:35:37;;;;;;;17.27;11.57;;;9.20;99.90;;;;;;5058605;28;21108;-85
2021/04/19 01:38:06;;;;;;;15.77;11.53;;;9.10;99.90;;;;;;5058332;28;20516;-86
2021/04/19 01:40:32;;;;;;;17.57;12.43;;;9.20;99.90;;;;;;5058537;28;20437;-87
2021/04/19 01:42:59;;;;;;;16.13;12.27;;;9.20;99.90;;;;;;5056437;28;20898;-86
2021/04/19 01:45:26;;;;;;;15.90;11.20;;;9.20;99.90;;;;;;5058184;28;20457;-88
2021/04/19 01:47:53;;;;;;;18.13;12.67;;;9.20;99.90;;;;;;5021132;28;20479;-86
2021/04/19 01:50:22;;;;;;;14.63;11.73;;;9.30;99.90;;;;;;5017020;28;20486;-87
2021/04/19 01:52:49;;;;;;;17.43;11.87;;;9.30;99.90;;;;;;5015962;28;20524;-86
2021/04/19 01:55:20;;;;;;;15.87;12.73;;;9.00;99.90;;;;;;5016847;28;20501;-87
2021/04/19 01:57:50;;;;;;;15.17;11.73;;;9.30;99.90;;;;;;5020828;28;20509;-86
2021/04/19 02:00:20;;;;;;;16.67;11.80;;;9.30;99.90;;;;;;5037744;28;20921;-87
2021/04/19 02:02:52;;;;;;;17.67;11.73;;;9.20;99.90;;;;;;5037793;28;20929;-87
2021/04/19 02:05:28;;;;;;;15.97;11.50;;;9.20;99.90;;;;;;5031080;28;20883;-85
2021/04/19 02:08:02;;;;;;;16.17;12.20;;;8.80;99.90;;;;;;5036945;28;20473;-86
2021/04/19 02:10:37;;;;;;;13.70;11.20;;;9.00;99.90;;;;;;5039304;28;20441;-87
2021/04/19 02:13:10;;;;;;;18.87;12.80;;;9.30;99.90;;;;;;5039417;28;20512;-89
2021/04/19 02:15:47;;;;;;;16.47;11.70;;;9.40;99.90;;;;;;5036483;28;20441;-89
2021/04/19 02:18:22;;;;;;;17.33;12.27;;;9.40;99.90;;;;;;5037517;28;20465;-87
2021/04/19 02:20:52;;;;;;;15.53;11.27;;;9.20;99.90;;;;;;5036737;28;20493;-87
2021/04/19 02:23:25;;;;;;;18.00;12.73;;;9.30;99.90;;;;;;5037568;28;20936;-87
2021/04/19 02:25:56;;;;;;;14.63;10.63;;;9.40;99.90;;;;;;5039221;28;20848;-87
2021/04/19 02:28:28;;;;;;;19.30;12.50;;;9.40;99.90;;;;;;5039785;28;20409;-87
2021/04/19 02:30:59;;;;;;;19.83;12.70;;;9.30;99.90;;;;;;5046180;28;20513;-87
2021/04/19 02:33:30;;;;;;;16.80;12.80;;;9.30;99.90;;;;;;5053329;28;20527;-86
2021/04/19 02:35:57;;;;;;;15.97;12.33;;;9.50;99.90;;;;;;5051477;28;20445;-86
2021/04/19 02:38:27;;;;;;;16.53;11.10;;;9.50;99.90;;;;;;5056474;28;20489;-87
2021/04/19 02:40:56;;;;;;;15.50;11.73;;;9.50;99.90;;;;;;5054068;28;20441;-88
2021/04/19 02:43:24;;;;;;;16.50;12.47;;;9.60;99.90;;;;;;5047010;28;20442;-87
2021/04/19 02:45:51;;;;;;;22.90;13.63;;;9.50;99.90;;;;;;5043708;28;20481;-86
2021/04/19 02:48:21;;;;;;;15.17;12.50;;;9.60;99.90;;;;;;5031309;28;20462;-86
2021/04/19 02:50:48;;;;;;;17.57;12.87;;;9.30;99.90;;;;;;5034988;28;20495;-86
2021/04/19 02:53:15;;;;;;;17.43;12.33;;;9.30;99.90;;;;;;5022411;28;20743;-85
2021/04/19 02:55:43;;;;;;;17.70;13.63;;;9.50;99.90;;;;;;5023045;28;20474;-85
2021/04/19 02:58:13;;;;;;;16.57;11.53;;;9.40;99.90;;;;;;5028180;28;20508;-86
2021/04/19 03:00:45;;;;;;;17.83;12.87;;;9.40;99.90;;;;;;5032794;28;20488;-87
2021/04/19 03:03:21;;;;;;;20.03;12.90;;;9.40;99.90;;;;;;5033982;28;20454;-87
2021/04/19 03:05:48;;;;;;;18.37;13.80;;;9.60;99.90;;;;;;5020738;28;20488;-86
2021/04/19 03:08:20;;;;;;;19.23;13.37;;;9.10;99.90;;;;;;5023761;28;20466;-86
2021/04/19 03:10:53;;;;;;;17.87;12.07;;;9.50;99.90;;;;;;5035112;28;20411;-87
2021/04/19 03:13:23;;;;;;;18.10;12.60;;;9.50;99.90;;;;;;5040138;28;20517;-85
2021/04/19 03:15:53;;;;;;;18.83;12.67;;;9.40;99.90;;;;;;5043465;28;20488;-86
2021/04/19 03:18:20;;;;;;;17.50;12.53;;;9.40;99.90;;;;;;5045375;28;20445;-86
2021/04/19 03:21:04;;;;;;;17.17;12.27;;;9.40;99.90;;;;;;5045899;28;20519;-84
2021/04/19 03:23:32;;;;;;;14.40;12.07;;;9.30;99.90;;;;;;5048949;28;20600;-86
2021/04/19 03:26:00;;;;;;;18.50;12.53;;;9.40;99.90;;;;;;5043363;28;20467;-87
2021/04/19 03:28:30;;;;;;;16.37;12.60;;;9.20;99.90;;;;;;5036388;28;20493;-86
2021/04/19 03:30:57;;;;;;;16.57;13.40;;;9.40;99.90;;;;;;5036407;28;20442;-86
2021/04/19 03:33:25;;;;;;;17.93;13.10;;;9.40;99.90;;;;;;5031925;28;21147;-87
2021/04/19 03:35:52;;;;;;;19.93;14.17;;;9.30;99.90;;;;;;5023315;28;20497;-85
2021/04/19 03:38:21;;;;;;;19.23;13.60;;;9.40;99.90;;;;;;5025250;28;20421;-84
2021/04/19 03:40:50;;;;;;;15.77;11.33;;;9.30;99.90;;;;;;5026007;28;21124;-85
2021/04/19 03:43:19;;;;;;;18.73;13.80;;;9.40;99.90;;;;;;5030523;28;20541;-88
2021/04/19 03:45:50;;;;;;;17.10;13.20;;;9.50;99.90;;;;;;5033915;28;20462;-85
2021/04/19 03:48:21;;;;;;;17.03;14.13;;;9.50;99.90;;;;;;5025213;28;20442;-87
2021/04/19 03:50:52;;;;;;;19.10;14.20;;;9.50;99.90;;;;;;5026890;28;20410;-86
2021/04/19 03:53:19;;;;;;;20.10;13.30;;;9.20;99.90;;;;;;5026082;28;20494;-85
2021/04/19 03:55:48;;;;;;;18.70;13.40;;;9.20;99.90;;;;;;5030340;28;20478;-84
2021/04/19 03:58:16;;;;;;;26.97;15.17;;;9.30;99.90;;;;;;5028637;28;20956;-84
2021/04/19 04:00:45;;;;;;;22.97;15.13;;;9.30;99.90;;;;;;5026024;28;20455;-87
2021/04/19 04:03:17;;;;;;;18.47;15.30;;;9.30;99.90;;;;;;5026407;28;20450;-86
2021/04/19 04:05:44;;;;;;;20.43;14.97;;;9.30;99.90;;;;;;5062740;28;20425;-85
2021/04/19 04:08:12;;;;;;;21.27;16.30;;;9.30;99.90;;;;;;5063478;28;20464;-88
2021/04/19 04:10:39;;;;;;;26.23;16.13;;;9.50;99.90;;;;;;5057805;28;20493;-86
2021/04/19 04:13:05;;;;;;;23.13;17.60;;;9.10;99.90;;;;;;5046270;28;20474;-85
2021/04/19 04:15:32;;;;;;;25.00;17.00;;;9.30;99.90;;;;;;5044338;28;20472;-84
2021/04/19 04:17:58;;;;;;;23.63;18.10;;;9.40;99.90;;;;;;5043778;28;20882;-86
2021/04/19 04:20:26;;;;;;;19.97;15.83;;;9.30;99.90;;;;;;5046109;28;20469;-86
2021/04/19 04:22:52;;;;;;;22.67;16.80;;;9.40;99.90;;;;;;5047704;28;20759;-87
2021/04/19 04:25:21;;;;;;;23.90;16.27;;;9.50;99.90;;;;;;5046130;28;20529;-88
2021/04/19 04:27:48;;;;;;;24.80;16.03;;;9.30;99.90;;;;;;5043822;28;20595;-88
2021/04/19 04:30:15;;;;;;;25.43;17.50;;;9.50;99.90;;;;;;5041741;28;20458;-86
2021/04/19 04:32:42;;;;;;;23.07;15.53;;;9.30;99.90;;;;;;5040766;28;20478;-86
2021/04/19 04:35:09;;;;;;;21.27;16.00;;;9.50;99.90;;;;;;5041134;28;20438;-84
2021/04/19 04:37:36;;;;;;;23.83;17.20;;;9.50;99.90;;;;;;5133391;22;20489;-85
2021/04/19 04:40:03;;;;;;;22.10;15.90;;;9.50;99.90;;;;;;5096984;28;20459;-86
2021/04/19 04:42:32;;;;;;;19.10;15.17;;;9.50;99.90;;;;;;5096023;28;20449;-85
2021/04/19 04:44:59;;;;;;;21.30;15.63;;;9.60;99.90;;;;;;5095320;28;20449;-86
2021/04/19 04:47:31;;;;;;;22.70;16.63;;;9.70;99.90;;;;;;5076175;28;20440;-85
2021/04/19 04:50:07;;;;;;;21.90;16.93;;;9.30;99.90;;;;;;5075806;28;20468;-85
2021/04/19 04:52:38;;;;;;;23.67;16.67;;;9.60;99.90;;;;;;5071065;28;20467;-85
2021/04/19 04:55:07;;;;;;;22.60;15.10;;;9.60;99.90;;;;;;5068285;28;20421;-86
2021/04/19 04:57:36;;;;;;;24.60;17.10;;;9.60;99.90;;;;;;5068140;28;20480;-85
2021/04/19 05:00:04;;;;;;;23.03;17.53;;;9.40;99.90;;;;;;5071160;28;20531;-86
2021/04/19 05:02:31;;;;;;;22.77;16.30;;;9.60;99.90;;;;;;5068238;28;20465;-85
2021/04/19 05:04:58;;;;;;;23.80;16.07;;;9.60;99.90;;;;;;5069148;28;20457;-85
2021/04/19 05:07:24;;;;;;;18.50;14.77;;;9.80;99.90;;;;;;5048611;28;20432;-87
2021/04/19 05:09:52;;;;;;;23.37;16.93;;;9.70;99.90;;;;;;5052579;28;20471;-85
2021/04/19 05:12:18;;;;;;;23.83;16.63;;;9.90;99.90;;;;;;5052540;28;20520;-86
2021/04/19 05:14:57;;;;;;;28.33;17.23;;;9.90;99.90;;;;;;5054898;28;20446;-85
2021/04/19 05:17:23;;;;;;;28.73;18.20;;;9.70;99.90;;;;;;5062655;28;20524;-85
2021/04/19 05:19:51;;;;;;;26.87;18.47;;;9.20;99.90;;;;;;5094688;28;20444;-86
2021/04/19 05:22:17;;;;;;;27.83;19.97;;;9.50;99.90;;;;;;5093952;28;20504;-84
2021/04/19 05:24:43;;;;;;;25.53;19.90;;;9.40;99.90;;;;;;5089811;28;20478;-86
2021/04/19 05:27:12;;;;;;;30.47;20.07;;;9.20;99.90;;;;;;5088142;28;20492;-85
2021/04/19 05:29:39;;;;;;;29.83;19.70;;;9.50;99.90;;;;;;5076954;28;20479;-85
2021/04/19 05:32:07;;;;;;;27.03;19.63;;;9.20;99.90;;;;;;5077059;28;20522;-87
2021/04/19 05:34:34;;;;;;;24.43;18.80;;;9.40;99.90;;;;;;5075793;28;20467;-86
2021/04/19 05:37:02;;;;;;;31.00;20.27;;;9.40;99.90;;;;;;5076050;28;20487;-86
2021/04/19 05:39:31;;;;;;;29.00;20.47;;;9.50;99.90;;;;;;5080431;28;20938;-83
2021/04/19 05:41:57;;;;;;;27.67;20.37;;;9.50;99.90;;;;;;5089641;28;20472;-84
2021/04/19 05:44:25;;;;;;;27.77;19.50;;;9.50;99.90;;;;;;5080752;28;20440;-87
2021/04/19 05:46:52;;;;;;;29.73;20.50;;;9.50;99.90;;;;;;5074039;28;20512;-82
2021/04/19 05:49:18;;;;;;;26.40;18.63;;;9.50;99.90;;;;;;5093900;28;20520;-83
2021/04/19 05:51:45;;;;;;;32.30;21.47;;;9.10;99.90;;;;;;5081460;28;20468;-85
2021/04/19 05:54:15;;;;;;;26.90;19.03;;;8.90;99.90;;;;;;5080332;28;20512;-85
2021/04/19 05:56:54;;;;;;;27.87;21.07;;;9.30;99.90;;;;;;5087390;28;20487;-85
2021/04/19 05:59:28;;;;;;;28.30;20.60;;;9.20;99.90;;;;;;5087935;28;20432;-85
2021/04/19 06:01:56;;;;;;;27.80;18.83;;;9.10;99.90;;;;;;5077539;28;20441;-84
2021/04/19 06:04:32;;;;;;;28.50;21.30;;;9.50;99.90;;;;;;5068736;28;20463;-85
2021/04/19 06:07:02;;;;;;;25.13;18.97;;;9.60;99.90;;;;;;5064013;28;21010;-85
2021/04/19 06:09:34;;;;;;;26.10;21.00;;;9.80;99.90;;;;;;5064769;28;20488;-85
2021/04/19 06:12:06;;;;;;;28.37;20.50;;;9.90;99.90;;;;;;5070898;28;20454;-86
2021/04/19 06:14:36;;;;;;;29.93;21.17;;;9.60;99.90;;;;;;5069135;28;20484;-85
2021/04/19 06:17:04;;;;;;;29.63;21.77;;;9.60;99.90;;;;;;5055548;28;20562;-87
2021/04/19 06:19:35;;;;;;;29.23;20.20;;;9.30;99.90;;;;;;5065043;28;20436;-84
2021/04/19 06:22:02;;;;;;;27.33;21.30;;;9.10;99.90;;;;;;5068115;28;20443;-86
2021/04/19 06:24:28;;;;;;;30.43;21.87;;;9.50;99.90;;;;;;5064850;28;20427;-84
2021/04/19 06:26:55;;;;;;;28.40;20.53;;;9.10;99.90;;;;;;5063079;28;20512;-83
2021/04/19 06:29:26;;;;;;;32.03;24.17;;;8.90;99.90;;;;;;5063113;28;20460;-86
2021/04/19 06:31:54;;;;;;;30.10;23.57;;;9.00;99.90;;;;;;5062526;28;20452;-83
2021/04/19 06:34:21;;;;;;;31.57;23.70;;;9.10;99.90;;;;;;5066760;28;20424;-84
2021/04/19 06:36:51;;;;;;;32.10;23.17;;;9.00;99.90;;;;;;5070570;28;20483;-84
2021/04/19 06:39:19;;;;;;;29.63;23.20;;;9.00;99.90;;;;;;5078773;28;20453;-85
2021/04/19 06:41:46;;;;;;;30.60;23.30;;;9.00;99.90;;;;;;5071778;28;20460;-85
2021/04/19 06:44:14;;;;;;;31.07;22.57;;;9.20;99.90;;;;;;5063588;28;21002;-84
2021/04/19 06:46:42;;;;;;;31.70;22.53;;;9.10;99.90;;;;;;5064821;28;20462;-84
2021/04/19 06:49:10;;;;;;;29.50;22.10;;;9.30;99.90;;;;;;5063709;28;20464;-85
2021/04/19 06:51:37;;;;;;;36.10;23.00;;;9.30;99.90;;;;;;5064661;28;20438;-84
2021/04/19 06:54:05;;;;;;;31.83;24.33;;;9.40;99.90;;;;;;5065383;28;20477;-84
2021/04/19 06:56:36;;;;;;;29.40;24.10;;;9.20;99.90;;;;;;5064947;28;20420;-83
2021/04/19 06:59:05;;;;;;;32.43;23.07;;;9.30;99.90;;;;;;5065372;28;20933;-84
2021/04/19 07:01:32;;;;;;;31.97;24.73;;;9.20;99.90;;;;;;5064078;28;20453;-84
2021/04/19 07:04:00;;;;;;;32.80;22.70;;;9.40;99.90;;;;;;5068625;28;20456;-86
2021/04/19 07:06:29;;;;;;;30.10;22.40;;;9.20;99.90;;;;;;5069434;28;20499;-87
2021/04/19 07:09:01;;;;;;;31.77;24.03;;;9.10;99.90;;;;;;5064620;28;20448;-85
2021/04/19 07:11:33;;;;;;;29.77;22.27;;;9.30;99.90;;;;;;5063896;28;20827;-84
2021/04/19 07:14:00;;;;;;;29.87;22.47;;;9.20;99.90;;;;;;5064726;28;20537;-84
2021/04/19 07:16:27;;;;;;;32.30;21.77;;;9.00;99.90;;;;;;5064854;28;20452;-84
2021/04/19 07:18:54;;;;;;;33.63;20.57;;;9.10;99.90;;;;;;5076650;28;20490;-85
2021/04/19 07:21:20;;;;;;;25.97;19.80;;;9.20;99.90;;;;;;5082315;28;20435;-84
2021/04/19 07:23:47;;;;;;;27.70;21.00;;;9.00;99.90;;;;;;5082112;28;20446;-84
2021/04/19 07:26:14;;;;;;;30.53;21.00;;;8.80;99.90;;;;;;5082457;28;20423;-84
2021/04/19 07:28:40;;;;;;;23.50;18.77;;;9.00;99.90;;;;;;5086708;28;20512;-84
2021/04/19 07:31:09;;;;;;;25.37;20.37;;;9.10;99.90;;;;;;5083399;28;20471;-84
2021/04/19 07:33:36;;;;;;;27.40;19.93;;;9.00;99.90;;;;;;5084857;28;20476;-86
2021/04/19 07:36:22;;;;;;;29.42;18.92;;;9.10;99.90;;;;;;5084478;28;20431;-84
2021/04/19 07:38:49;;;;;;;26.03;18.77;;;9.20;99.90;;;;;;5086324;28;20202;-85
2021/04/19 07:41:17;;;;;;;30.00;19.50;;;9.40;99.90;;;;;;5086955;28;20491;-84
2021/04/19 07:43:45;;;;;;;25.67;17.07;;;9.40;99.90;;;;;;5086272;28;20447;-85
2021/04/19 07:46:14;;;;;;;26.30;17.20;;;9.40;99.90;;;;;;5087172;28;20456;-84
2021/04/19 07:48:45;;;;;;;26.33;19.20;;;9.30;99.90;;;;;;5086861;28;20445;-85
2021/04/19 07:51:30;;;;;;;24.23;18.70;;;9.40;99.90;;;;;;5085546;28;20450;-85
2021/04/19 07:54:16;;;;;;;27.00;19.60;;;9.20;99.90;;;;;;5068652;28;20488;-85
2021/04/19 07:56:45;;;;;;;23.70;18.10;;;9.30;99.90;;;;;;5068330;28;20431;-85
2021/04/19 07:59:34;;;;;;;28.93;20.40;;;9.20;99.90;;;;;;5065507;28;20483;-85
2021/04/19 08:02:02;;;;;;;29.33;19.10;;;9.30;99.90;;;;;;5063176;28;20504;-85
2021/04/19 08:04:30;;;;;;;27.53;19.90;;;9.20;99.90;;;;;;5074884;28;20433;-85
2021/04/19 08:06:57;;;;;;;26.83;19.00;;;9.30;99.90;;;;;;5085661;28;20505;-85
2021/04/19 08:09:25;;;;;;;26.77;20.63;;;9.30;99.90;;;;;;5083409;28;20418;-84
2021/04/19 08:11:57;;;;;;;25.83;18.87;;;9.20;99.90;;;;;;5084453;28;20459;-84
2021/04/19 08:14:27;;;;;;;25.90;16.77;;;9.20;99.90;;;;;;5083332;28;20476;-85
2021/04/19 08:17:08;;;;;;;30.30;20.37;;;9.40;99.90;;;;;;5082200;28;20520;-84
2021/04/19 08:19:36;;;;;;;25.47;19.30;;;9.40;99.90;;;;;;5082154;28;20440;-84
2021/04/19 08:22:13;;;;;;;25.90;20.13;;;9.50;99.90;;;;;;5085691;28;20610;-85
2021/04/19 08:24:39;;;;;;;32.50;19.03;;;9.70;99.90;;;;;;5084249;28;20847;-86
2021/04/19 08:27:06;;;;;;;25.23;17.90;;;9.70;99.90;;;;;;5084739;28;20534;-85
2021/04/19 08:29:38;;;;;;;63.47;20.60;;;9.70;99.90;;;;;;5082756;28;20419;-85
2021/04/19 08:32:05;;;;;;;29.90;19.63;;;9.90;99.90;;;;;;5082211;28;20476;-85
2021/04/19 08:34:35;;;;;;;23.07;17.83;;;9.50;99.90;;;;;;5082534;28;20466;-85
2021/04/19 08:37:02;;;;;;;28.77;18.47;;;9.70;99.90;;;;;;5081380;28;20480;-85
2021/04/19 08:39:29;;;;;;;29.50;18.60;;;9.90;99.90;;;;;;5082779;28;20522;-85
2021/04/19 08:41:56;;;;;;;27.83;18.97;;;9.90;99.90;;;;;;5081910;28;20437;-85
2021/04/19 08:44:23;;;;;;;23.90;19.50;;;9.90;99.90;;;;;;5082730;28;20434;-85
2021/04/19 08:46:51;;;;;;;26.20;19.23;;;10.00;99.90;;;;;;5083205;28;20518;-85
2021/04/19 08:49:17;;;;;;;23.27;18.73;;;10.00;99.90;;;;;;5082499;28;20479;-85
2021/04/19 08:51:44;;;;;;;25.03;19.70;;;10.20;99.90;;;;;;5082666;28;20451;-85
2021/04/19 08:54:10;;;;;;;23.43;18.33;;;10.20;99.90;;;;;;5083181;28;21084;-85
2021/04/19 08:56:37;;;;;;;26.70;19.47;;;10.30;99.90;;;;;;5084155;28;20483;-85
2021/04/19 08:59:03;;;;;;;25.80;18.40;;;10.10;99.90;;;;;;5083446;28;20460;-85
2021/04/19 09:01:31;;;;;;;26.60;18.97;;;10.00;99.90;;;;;;5082622;28;20627;-85
2021/04/19 09:04:06;;;;;;;25.93;17.83;;;9.90;99.90;;;;;;5088040;28;20422;-86
2021/04/19 09:06:43;;;;;;;25.00;19.70;;;9.90;99.90;;;;;;5074623;28;20658;-86
2021/04/19 09:09:14;;;;;;;25.93;20.13;;;9.90;99.90;;;;;;5060402;28;20464;-85
2021/04/19 09:11:40;;;;;;;25.87;19.43;;;9.80;99.90;;;;;;5061324;28;20435;-85
2021/04/19 09:14:10;;;;;;;22.87;16.83;;;9.70;99.90;;;;;;5068745;28;20535;-85
2021/04/19 09:16:39;;;;;;;23.93;18.27;;;9.70;99.90;;;;;;5068435;28;20469;-86
2021/04/19 09:19:07;;;;;;;27.27;17.00;;;9.70;99.90;;;;;;5069824;28;20441;-84
2021/04/19 09:21:41;;;;;;;30.23;17.40;;;9.70;99.90;;;;;;5073871;28;20461;-85
2021/04/19 09:24:09;;;;;;;25.13;18.93;;;9.70;99.90;;;;;;5075324;28;20415;-85
2021/04/19 09:26:50;;;;;;;25.37;17.77;;;9.80;99.90;;;;;;5078992;28;20532;-85
2021/04/19 09:29:47;;;;;;;30.23;18.83;;;9.70;99.90;;;;;;5083051;28;20423;-84
2021/04/19 09:32:25;;;;;;;24.53;18.97;;;9.80;99.90;;;;;;5094027;28;20426;-85
2021/04/19 09:34:54;;;;;;;25.63;19.50;;;9.70;99.90;;;;;;5092554;28;20488;-87
2021/04/19 09:37:22;;;;;;;24.00;17.53;;;9.40;99.90;;;;;;5079065;28;20479;-86
2021/04/19 09:39:56;;;;;;;26.50;18.90;;;9.50;99.90;;;;;;5075926;28;20414;-85
2021/04/19 09:43:05;;;;;;;28.30;19.80;;;9.60;99.90;;;;;;5077845;28;20449;-87
2021/04/19 09:45:54;;;;;;;28.70;19.10;;;9.60;99.90;;;;;;5073389;28;20440;-86
2021/04/19 09:48:39;;;;;;;24.10;18.50;;;9.70;99.90;;;;;;5057040;28;20481;-86
2021/04/19 09:51:12;;;;;;;25.20;18.17;;;10.00;99.90;;;;;;5057577;28;20456;-85
2021/04/19 09:53:40;;;;;;;25.03;20.50;;;9.90;99.90;;;;;;5073030;28;20985;-86
2021/04/19 09:56:06;;;;;;;26.27;19.33;;;9.90;99.90;;;;;;5064976;28;20480;-85
2021/04/19 09:58:36;;;;;;;29.30;19.27;;;10.00;99.90;;;;;;5076400;28;20476;-86
2021/04/19 10:01:03;;;;;;;32.00;19.50;;;10.10;99.90;;;;;;5076335;28;20452;-87
2021/04/19 10:03:29;;;;;;;25.67;18.83;;;10.30;99.90;;;;;;5075393;28;20463;-86
2021/04/19 10:06:01;;;;;;;27.00;21.17;;;10.40;99.90;;;;;;5075483;28;20506;-86
2021/04/19 10:08:28;;;;;;;31.80;20.73;;;10.30;99.90;;;;;;5081756;28;20480;-86
2021/04/19 10:10:56;;;;;;;26.47;19.60;;;10.40;99.90;;;;;;5077245;28;20969;-86
2021/04/19 10:13:30;;;;;;;24.97;19.37;;;10.30;99.90;;;;;;5067406;28;20550;-86
2021/04/19 10:16:08;;;;;;;26.73;19.90;;;10.30;99.90;;;;;;5061504;28;20978;-87
2021/04/19 10:18:36;;;;;;;29.83;19.33;;;10.30;99.90;;;;;;5058576;28;20526;-87
2021/04/19 10:21:04;;;;;;;25.93;18.87;;;10.30;99.90;;;;;;5056038;28;20550;-87
2021/04/19 10:23:36;;;;;;;26.40;20.03;;;10.40;99.90;;;;;;5054969;28;20424;-86
2021/04/19 10:26:03;;;;;;;27.53;20.30;;;10.30;99.90;;;;;;5054878;28;20427;-86
2021/04/19 10:28:32;;;;;;;27.90;20.37;;;10.40;99.90;;;;;;5057159;28;20475;-86
2021/04/19 10:31:12;;;;;;;32.43;20.23;;;10.40;99.90;;;;;;5074512;28;20513;-86
2021/04/19 10:33:41;;;;;;;31.10;20.60;;;10.50;99.90;;;;;;5075582;28;20438;-87
2021/04/19 10:36:16;;;;;;;27.30;20.57;;;10.50;99.90;;;;;;5076213;28;20444;-86
2021/04/19 10:38:43;;;;;;;28.07;20.40;;;10.50;99.90;;;;;;5082583;28;20433;-85
2021/04/19 10:41:09;;;;;;;25.77;19.47;;;10.50;99.90;;;;;;5085577;28;20442;-86
2021/04/19 10:43:36;;;;;;;32.47;20.60;;;10.60;99.90;;;;;;5085385;28;20451;-84
2021/04/19 10:46:18;;;;;;;27.27;19.83;;;10.60;99.90;;;;;;5083514;28;20439;-84
2021/04/19 10:48:45;;;;;;;25.17;20.00;;;10.70;99.90;;;;;;5082846;28;20433;-83
2021/04/19 10:51:20;;;;;;;24.80;19.60;;;10.50;99.90;;;;;;5083691;28;20435;-86
2021/04/19 10:53:47;;;;;;;27.67;21.90;;;10.50;99.90;;;;;;5090491;28;20490;-86
2021/04/19 10:56:21;;;;;;;30.10;21.40;;;10.50;99.90;;;;;;5094808;28;20422;-85
2021/04/19 10:58:48;;;;;;;30.70;23.10;;;10.40;99.90;;;;;;5089546;28;20480;-86
2021/04/19 11:01:21;;;;;;;29.13;20.37;;;10.30;99.90;;;;;;5089522;28;20535;-85
2021/04/19 11:03:48;;;;;;;29.27;20.73;;;10.50;99.90;;;;;;5087806;28;20448;-85
2021/04/19 11:06:17;;;;;;;27.40;21.07;;;10.60;99.90;;;;;;5086694;28;20436;-86
2021/04/19 11:08:53;;;;;;;28.73;21.93;;;10.70;99.90;;;;;;5086872;28;20423;-85
2021/04/19 11:11:39;;;;;;;26.80;20.50;;;10.90;99.90;;;;;;5086490;28;20505;-84
2021/04/19 11:14:18;;;;;;;25.03;19.47;;;11.00;99.90;;;;;;5086840;28;20483;-85
2021/04/19 11:17:01;;;;;;;26.03;19.03;;;11.20;99.90;;;;;;5087447;28;20439;-85
2021/04/19 11:19:31;;;;;;;30.00;20.03;;;11.20;99.90;;;;;;5086885;28;20859;-83
2021/04/19 11:21:58;;;;;;;26.40;19.20;;;11.20;99.90;;;;;;5085917;28;20458;-84
2021/04/19 11:24:37;;;;;;;24.43;18.80;;;11.10;99.90;;;;;;5086517;28;20515;-85
2021/04/19 11:27:08;;;;;;;27.77;20.17;;;11.10;99.90;;;;;;5084573;28;20498;-85
2021/04/19 11:29:39;;;;;;;23.70;18.97;;;11.10;99.90;;;;;;5087015;28;20965;-85
2021/04/19 11:32:06;;;;;;;23.10;18.20;;;11.10;99.90;;;;;;5090090;28;20444;-85
2021/04/19 11:34:37;;;;;;;26.03;19.67;;;11.20;99.90;;;;;;5085695;28;20484;-85
2021/04/19 11:37:04;;;;;;;27.93;19.50;;;11.30;99.90;;;;;;5085372;28;20480;-85
2021/04/19 11:39:39;;;;;;;26.03;18.97;;;11.50;99.90;;;;;;5086664;28;20452;-84
2021/04/19 11:42:06;;;;;;;26.30;19.33;;;11.40;99.90;;;;;;5086815;28;20453;-84
2021/04/19 11:44:46;;;;;;;25.67;18.67;;;11.40;99.90;;;;;;5087240;28;20444;-85
2021/04/19 11:47:16;;;;;;;25.07;18.80;;;11.60;99.90;;;;;;5086724;28;20480;-85
2021/04/19 11:49:43;;;;;;;24.23;15.93;;;11.50;99.90;;;;;;5087068;28;20430;-85
2021/04/19 11:52:09;;;;;;;21.73;15.67;;;11.60;99.90;;;;;;5085361;28;20455;-84
2021/04/19 11:54:36;;;;;;;22.20;15.40;;;11.70;99.90;;;;;;5085198;28;20509;-85
2021/04/19 11:57:04;;;;;;;23.37;16.37;;;11.60;99.90;;;;;;5087951;28;21020;-86
2021/04/19 11:59:30;;;;;;;19.60;16.50;;;11.60;99.90;;;;;;5094870;28;20462;-86
2021/04/19 12:01:57;;;;;;;21.13;15.53;;;11.60;99.90;;;;;;5094322;28;20411;-84
2021/04/19 12:04:23;;;;;;;19.83;15.40;;;11.70;99.90;;;;;;5094931;28;20451;-84
2021/04/19 12:06:50;;;;;;;20.43;16.43;;;11.80;99.90;;;;;;5094883;28;20442;-85
2021/04/19 12:09:16;;;;;;;21.73;15.67;;;11.60;99.90;;;;;;5087413;28;20950;-84
2021/04/19 12:11:42;;;;;;;22.67;16.53;;;11.80;99.90;;;;;;5087089;28;20421;-85
2021/04/19 12:14:09;;;;;;;22.07;17.67;;;11.70;99.90;;;;;;5086894;28;20486;-85
2021/04/19 12:16:36;;;;;;;20.80;16.00;;;11.80;99.90;;;;;;5075656;28;20451;-83
2021/04/19 12:19:03;;;;;;;20.83;15.07;;;11.80;99.90;;;;;;5066492;28;20463;-84
2021/04/19 12:21:29;;;;;;;21.27;14.90;;;11.90;99.90;;;;;;5066502;28;20519;-86
2021/04/19 12:23:56;;;;;;;20.27;15.50;;;11.90;99.90;;;;;;5066425;28;20480;-84
2021/04/19 12:26:22;;;;;;;17.10;13.40;;;11.70;99.90;;;;;;5065885;28;20463;-84
2021/04/19 12:28:49;;;;;;;17.83;13.40;;;11.80;99.90;;;;;;5066477;28;20428;-84
2021/04/19 12:31:16;;;;;;;20.67;13.40;;;11.90;99.90;;;;;;5066212;28;20468;-85
2021/04/19 12:33:42;;;;;;;17.50;13.33;;;12.00;99.90;;;;;;5064679;28;20455;-85
2021/04/19 12:36:10;;;;;;;17.70;14.37;;;11.80;99.90;;;;;;5066047;28;20744;-85
2021/04/19 12:38:37;;;;;;;16.90;12.80;;;11.80;99.90;;;;;;5066365;28;20459;-84
2021/04/19 12:41:03;;;;;;;17.10;12.70;;;11.90;99.90;;;;;;5066250;28;20483;-86
2021/04/19 12:43:29;;;;;;;16.77;13.90;;;11.90;99.90;;;;;;5066524;28;20431;-86